METAR Reports From Nearby Airports

 

KLUD - Decatur, Texas, USA
Distance from Wildwood: ESE 5mi, 8km
Dati ricevuti: Aug 21, 2019 6:35pm
Sereno
Sereno
 Vento da S
Vento: S 10 mph , 17 km/h
Temperatura: 97°F , 36°C
P.to Rugiada: 64°F , 18°C
Umidità: 34%
Barometro: 29.90 inHg , 1012.5 hPa
Clouds: Sereno
Visibility: 7 miles , 11 km
2019/08/21 23:35 KLUD 212335Z AUTO 17009KT 7SM CLR 36/18 A2990 RMK AO2 T03610176
KXBP - Bridgeport, Texas, USA
Distance from Wildwood: OSO 11mi, 18km
Dati ricevuti: Aug 21, 2019 6:35pm
Haze, Sereno
Haze, Sereno
 Vento da SE
Vento: SE 8 mph , 13 km/h
Temperatura: 97°F , 36°C
P.to Rugiada: 63°F , 17°C
Umidità: 32%
Barometro: 29.90 inHg , 1012.5 hPa
Summary: Haze
Clouds: Sereno
Visibility: 3 miles , 5 km
2019/08/21 23:35 KXBP 212335Z AUTO 14007KT 3SM HZ CLR 36/17 A2990 RMK AO2 T03570170
 
K0F2 - Bowie, Texas, USA
Distance from Wildwood: NNO 24mi, 39km
Dati ricevuti: Aug 21, 2019 6:35pm
Partly Cloudy
Partly Cloudy
 Vento da ESE
Vento: ESE 6 mph , 9 km/h
Temperatura: 95°F , 35°C
P.to Rugiada: 66°F , 19°C
Umidità: 39%
Barometro: 29.90 inHg , 1012.5 hPa
Clouds: Partly Cloudy
Visibility: 10 miles , 16 km
Cloud details: Partly Cloudy 7500 ft
2019/08/21 23:35 K0F2 212335Z AUTO 12005KT 10SM SCT075 35/19 A2990 RMK AO2 T03540192
KDTO - Denton, Texas, USA
Distance from Wildwood: E 27mi, 44km
Dati ricevuti: Aug 21, 2019 5:53pm
Few Clouds
Few Clouds
 Vento da S
Vento: S 16 mph , 26 km/h, Raffica: 21 mph , 33 km/h
Temperatura: 99°F , 37°C
P.to Rugiada: 66°F , 19°C
Umidità: 35%
Barometro: 29.89 inHg , 1012.2 hPa
Clouds: Few Clouds
Visibility: 10 miles , 16 km
Cloud details: Few Clouds 7000 ft
2019/08/21 22:53 KDTO 212253Z 17014G18KT 10SM FEW070 37/19 A2989 RMK AO2 SLP112 T03670194
 
KAFW - Ft Worth/Allianc, Texas, USA
Distance from Wildwood: SE 29mi, 46km
Dati ricevuti: Aug 21, 2019 5:53pm
Partly Cloudy
Partly Cloudy
 Vento da S
Vento: S 9 mph , 15 km/h
Temperatura: 99°F , 37°C
P.to Rugiada: 66°F , 19°C
Umidità: 35%
Barometro: 29.89 inHg , 1012.2 hPa
Clouds: Partly Cloudy
Visibility: 10 miles , 16 km
Cloud details: Partly Cloudy 9000 ft
2019/08/21 22:53 KAFW 212253Z 18008KT 10SM SCT090 37/19 A2989 RMK AO2 SLP101 CB DSNT NE MOV N MDT CU OHD T03670189
KFTW - Fort Worth, Texas, USA
Distance from Wildwood: SSE 34mi, 55km
Dati ricevuti: Aug 21, 2019 5:53pm
Sereno
Sereno
 Vento da ESE
Vento: ESE 13 mph , 20 km/h
Temperatura: 95°F , 35°C
P.to Rugiada: 66°F , 19°C
Umidità: 39%
Barometro: 29.88 inHg , 1011.9 hPa
Clouds: Sereno
Visibility: 10 miles , 16 km
2019/08/21 22:53 KFTW 212253Z 12011KT 10SM CLR 35/19 A2988 RMK AO2 SLP107 T03500189
 
KNFW - Fort Worth Nas, Texas, USA
Distance from Wildwood: SSE 36mi, 58km
Dati ricevuti: Aug 21, 2019 5:52pm
Few Clouds
Few Clouds
 Vento da SSE
Vento: SSE 14 mph , 22 km/h, Raffica: 18 mph , 30 km/h
Temperatura: 99°F , 37°C
P.to Rugiada: 63°F , 17°C
Umidità: 31%
Barometro: 29.89 inHg , 1012.2 hPa
Clouds: Few Clouds
Visibility: 10 miles , 16 km
Cloud details: Few Clouds 8000 ft
2019/08/21 22:52 KNFW 212252Z 16012G16KT 10SM FEW080 37/17 A2989 RMK AO2 SLP106 T03720172 VISNO N $
KGLE - Gainesville, Texas, USA
Distance from Wildwood: NE 38mi, 61km
Dati ricevuti: Aug 21, 2019 6:35pm
Sereno
Sereno
 Vento da SSE
Vento: SSE 12 mph , 19 km/h
Temperatura: 95°F , 35°C
P.to Rugiada: 64°F , 18°C
Umidità: 36%
Barometro: 29.92 inHg , 1013.2 hPa
Clouds: Sereno
Visibility: 10 miles , 16 km
2019/08/21 23:35 KGLE 212335Z AUTO 16010KT 10SM CLR 35/18 A2992 RMK AO2 T03530181 PWINO
 
KMWL - Mineral Wells, Texas, USA
Distance from Wildwood: SO 41mi, 65km
Dati ricevuti: Aug 21, 2019 5:53pm
Sereno
Sereno
 Vento da SE
Vento: SE 12 mph , 19 km/h
Temperatura: 99°F , 37°C
P.to Rugiada: 61°F , 16°C
Umidità: 29%
Barometro: 29.88 inHg , 1011.9 hPa
Clouds: Sereno
Visibility: 10 miles , 16 km
2019/08/21 22:53 KMWL 212253Z AUTO 13010KT 10SM CLR 37/16 A2988 RMK AO2 SLP104 T03670161
KDFW - Dallas/Ft Worth, Texas, USA
Distance from Wildwood: ESE 45mi, 73km
Dati ricevuti: Aug 21, 2019 5:53pm
Partly Cloudy
Partly Cloudy
 Vento da ESE
Vento: ESE 10 mph , 17 km/h
Temperatura: 97°F , 36°C
P.to Rugiada: 66°F , 19°C
Umidità: 37%
Barometro: 29.88 inHg , 1011.9 hPa
Clouds: Partly Cloudy
Visibility: 10 miles , 16 km
Cloud details: Partly Cloudy 7000 ft
2019/08/21 22:53 KDFW 212253Z 11009KT 10SM SCT070 36/19 A2988 RMK AO2 SLP107 CB DSNT N T03610194